sensor_id;sensor_type;location;lat;lon;timestamp;temperature;humidity
64652;HTU21D;51062;45.120;37.660;2022-07-10T00:00:31;22.36;75.62
64652;HTU21D;51062;45.120;37.660;2022-07-10T00:02:58;22.36;75.67
64652;HTU21D;51062;45.120;37.660;2022-07-10T00:05:24;22.35;75.74
64652;HTU21D;51062;45.120;37.660;2022-07-10T00:07:51;22.37;75.75
64652;HTU21D;51062;45.120;37.660;2022-07-10T00:10:18;22.38;75.80
64652;HTU21D;51062;45.120;37.660;2022-07-10T00:12:45;22.39;75.84
64652;HTU21D;51062;45.120;37.660;2022-07-10T00:15:12;22.41;75.84
64652;HTU21D;51062;45.120;37.660;2022-07-10T00:17:39;22.44;75.86
64652;HTU21D;51062;45.120;37.660;2022-07-10T00:20:07;22.44;75.91
64652;HTU21D;51062;45.120;37.660;2022-07-10T00:22:34;22.48;75.95
64652;HTU21D;51062;45.120;37.660;2022-07-10T00:25:05;22.50;76.00
64652;HTU21D;51062;45.120;37.660;2022-07-10T00:27:31;22.53;76.02
64652;HTU21D;51062;45.120;37.660;2022-07-10T00:29:58;22.57;76.02
64652;HTU21D;51062;45.120;37.660;2022-07-10T00:32:24;22.58;76.04
64652;HTU21D;51062;45.120;37.660;2022-07-10T00:34:51;22.58;76.07
64652;HTU21D;51062;45.120;37.660;2022-07-10T00:37:17;22.61;76.12
64652;HTU21D;51062;45.120;37.660;2022-07-10T00:39:44;22.61;76.14
64652;HTU21D;51062;45.120;37.660;2022-07-10T00:42:11;22.61;76.18
64652;HTU21D;51062;45.120;37.660;2022-07-10T00:44:40;22.60;76.20
64652;HTU21D;51062;45.120;37.660;2022-07-10T00:47:09;22.61;76.19
64652;HTU21D;51062;45.120;37.660;2022-07-10T00:49:36;22.60;76.15
64652;HTU21D;51062;45.120;37.660;2022-07-10T00:52:06;22.57;76.23
64652;HTU21D;51062;45.120;37.660;2022-07-10T00:54:34;22.55;76.23
64652;HTU21D;51062;45.120;37.660;2022-07-10T00:57:03;22.52;76.28
64652;HTU21D;51062;45.120;37.660;2022-07-10T00:59:31;22.49;76.31
64652;HTU21D;51062;45.120;37.660;2022-07-10T01:01:57;22.47;76.32
64652;HTU21D;51062;45.120;37.660;2022-07-10T01:04:24;22.46;76.32
64652;HTU21D;51062;45.120;37.660;2022-07-10T01:06:50;22.46;76.28
64652;HTU21D;51062;45.120;37.660;2022-07-10T01:09:16;22.46;76.31
64652;HTU21D;51062;45.120;37.660;2022-07-10T01:11:43;22.42;76.34
64652;HTU21D;51062;45.120;37.660;2022-07-10T01:14:10;22.40;76.37
64652;HTU21D;51062;45.120;37.660;2022-07-10T01:16:37;22.39;76.40
64652;HTU21D;51062;45.120;37.660;2022-07-10T01:19:03;22.39;76.35
64652;HTU21D;51062;45.120;37.660;2022-07-10T01:21:32;22.40;76.37
64652;HTU21D;51062;45.120;37.660;2022-07-10T01:23:59;22.40;76.33
64652;HTU21D;51062;45.120;37.660;2022-07-10T01:26:26;22.38;76.40
64652;HTU21D;51062;45.120;37.660;2022-07-10T01:28:53;22.36;76.45
64652;HTU21D;51062;45.120;37.660;2022-07-10T01:31:28;22.34;76.46
64652;HTU21D;51062;45.120;37.660;2022-07-10T01:33:55;22.32;76.44
64652;HTU21D;51062;45.120;37.660;2022-07-10T01:36:22;22.29;76.50
64652;HTU21D;51062;45.120;37.660;2022-07-10T01:38:53;22.28;76.59
64652;HTU21D;51062;45.120;37.660;2022-07-10T01:41:19;22.26;76.50
64652;HTU21D;51062;45.120;37.660;2022-07-10T01:43:45;22.25;76.50
64652;HTU21D;51062;45.120;37.660;2022-07-10T01:46:14;22.21;76.57
64652;HTU21D;51062;45.120;37.660;2022-07-10T01:48:40;22.20;76.57
64652;HTU21D;51062;45.120;37.660;2022-07-10T01:51:08;22.19;76.53
64652;HTU21D;51062;45.120;37.660;2022-07-10T01:53:35;22.14;76.48
64652;HTU21D;51062;45.120;37.660;2022-07-10T01:56:05;22.11;76.52
64652;HTU21D;51062;45.120;37.660;2022-07-10T01:58:31;22.10;76.49
64652;HTU21D;51062;45.120;37.660;2022-07-10T02:00:58;22.07;76.47
64652;HTU21D;51062;45.120;37.660;2022-07-10T02:03:24;22.03;76.55
64652;HTU21D;51062;45.120;37.660;2022-07-10T02:06:13;21.98;76.60
64652;HTU21D;51062;45.120;37.660;2022-07-10T02:08:40;21.95;76.62
64652;HTU21D;51062;45.120;37.660;2022-07-10T02:11:06;21.92;76.73
64652;HTU21D;51062;45.120;37.660;2022-07-10T02:13:32;21.87;76.88
64652;HTU21D;51062;45.120;37.660;2022-07-10T02:15:58;21.87;76.97
64652;HTU21D;51062;45.120;37.660;2022-07-10T02:18:25;21.85;76.98
64652;HTU21D;51062;45.120;37.660;2022-07-10T02:20:52;21.87;77.05
64652;HTU21D;51062;45.120;37.660;2022-07-10T02:23:18;21.90;77.02
64652;HTU21D;51062;45.120;37.660;2022-07-10T02:25:44;21.94;76.99
64652;HTU21D;51062;45.120;37.660;2022-07-10T02:28:10;21.99;76.98
64652;HTU21D;51062;45.120;37.660;2022-07-10T02:30:37;22.05;76.92
64652;HTU21D;51062;45.120;37.660;2022-07-10T02:33:03;22.11;76.91
64652;HTU21D;51062;45.120;37.660;2022-07-10T02:35:29;22.18;76.92
64652;HTU21D;51062;45.120;37.660;2022-07-10T02:37:55;22.22;76.89
64652;HTU21D;51062;45.120;37.660;2022-07-10T02:40:21;22.27;76.89
64652;HTU21D;51062;45.120;37.660;2022-07-10T02:42:47;22.33;76.86
64652;HTU21D;51062;45.120;37.660;2022-07-10T02:45:13;22.36;76.86
64652;HTU21D;51062;45.120;37.660;2022-07-10T02:47:40;22.40;76.86
64652;HTU21D;51062;45.120;37.660;2022-07-10T02:50:06;22.43;76.86
64652;HTU21D;51062;45.120;37.660;2022-07-10T02:52:32;22.47;76.86
64652;HTU21D;51062;45.120;37.660;2022-07-10T02:54:58;22.51;76.93
64652;HTU21D;51062;45.120;37.660;2022-07-10T02:57:25;22.61;77.02
64652;HTU21D;51062;45.120;37.660;2022-07-10T02:59:51;22.79;77.08
64652;HTU21D;51062;45.120;37.660;2022-07-10T03:02:18;23.12;77.09
64652;HTU21D;51062;45.120;37.660;2022-07-10T03:04:44;23.60;77.00
64652;HTU21D;51062;45.120;37.660;2022-07-10T03:07:10;24.14;77.01
64652;HTU21D;51062;45.120;37.660;2022-07-10T03:09:36;24.69;76.86
64652;HTU21D;51062;45.120;37.660;2022-07-10T03:12:02;25.20;76.55
64652;HTU21D;51062;45.120;37.660;2022-07-10T03:14:28;25.72;75.99
64652;HTU21D;51062;45.120;37.660;2022-07-10T03:16:55;26.24;75.22
64652;HTU21D;51062;45.120;37.660;2022-07-10T03:19:20;26.67;74.43
64652;HTU21D;51062;45.120;37.660;2022-07-10T03:21:47;27.09;73.45
64652;HTU21D;51062;45.120;37.660;2022-07-10T03:24:13;27.46;72.68
64652;HTU21D;51062;45.120;37.660;2022-07-10T03:26:39;27.85;71.87
64652;HTU21D;51062;45.120;37.660;2022-07-10T03:29:05;28.28;71.12
64652;HTU21D;51062;45.120;37.660;2022-07-10T03:31:31;28.74;70.00
64652;HTU21D;51062;45.120;37.660;2022-07-10T03:33:57;29.14;68.90
64652;HTU21D;51062;45.120;37.660;2022-07-10T03:36:23;29.53;67.81
64652;HTU21D;51062;45.120;37.660;2022-07-10T03:38:49;29.88;66.93
64652;HTU21D;51062;45.120;37.660;2022-07-10T03:41:15;30.20;66.01
64652;HTU21D;51062;45.120;37.660;2022-07-10T03:43:41;30.52;65.01
64652;HTU21D;51062;45.120;37.660;2022-07-10T03:46:07;30.68;64.09
64652;HTU21D;51062;45.120;37.660;2022-07-10T03:48:34;30.63;63.45
64652;HTU21D;51062;45.120;37.660;2022-07-10T03:51:01;30.47;63.43
64652;HTU21D;51062;45.120;37.660;2022-07-10T03:53:27;30.64;63.31
64652;HTU21D;51062;45.120;37.660;2022-07-10T03:55:53;30.93;62.73
64652;HTU21D;51062;45.120;37.660;2022-07-10T03:58:20;31.23;62.15
64652;HTU21D;51062;45.120;37.660;2022-07-10T04:00:46;31.57;61.50
64652;HTU21D;51062;45.120;37.660;2022-07-10T04:03:13;31.80;60.96
64652;HTU21D;51062;45.120;37.660;2022-07-10T04:05:39;31.89;60.84
64652;HTU21D;51062;45.120;37.660;2022-07-10T04:08:06;31.71;60.85
64652;HTU21D;51062;45.120;37.660;2022-07-10T04:10:34;31.48;60.83
64652;HTU21D;51062;45.120;37.660;2022-07-10T04:13:00;31.29;60.16
64652;HTU21D;51062;45.120;37.660;2022-07-10T04:15:26;31.30;59.32
64652;HTU21D;51062;45.120;37.660;2022-07-10T04:17:53;31.56;58.62
64652;HTU21D;51062;45.120;37.660;2022-07-10T04:20:19;31.87;58.27
64652;HTU21D;51062;45.120;37.660;2022-07-10T04:22:46;32.16;57.98
64652;HTU21D;51062;45.120;37.660;2022-07-10T04:25:12;32.56;57.38
64652;HTU21D;51062;45.120;37.660;2022-07-10T04:27:39;32.96;56.29
64652;HTU21D;51062;45.120;37.660;2022-07-10T04:30:05;33.20;55.48
64652;HTU21D;51062;45.120;37.660;2022-07-10T04:32:32;33.35;54.64
64652;HTU21D;51062;45.120;37.660;2022-07-10T04:34:58;33.37;54.46
64652;HTU21D;51062;45.120;37.660;2022-07-10T04:37:24;33.46;54.36
64652;HTU21D;51062;45.120;37.660;2022-07-10T04:39:50;33.74;53.62
64652;HTU21D;51062;45.120;37.660;2022-07-10T04:42:17;34.05;52.66
64652;HTU21D;51062;45.120;37.660;2022-07-10T04:44:43;34.35;52.03
64652;HTU21D;51062;45.120;37.660;2022-07-10T04:47:09;34.64;51.34
64652;HTU21D;51062;45.120;37.660;2022-07-10T04:49:35;34.84;50.96
64652;HTU21D;51062;45.120;37.660;2022-07-10T04:52:01;35.15;50.40
64652;HTU21D;51062;45.120;37.660;2022-07-10T04:54:27;35.51;49.69
64652;HTU21D;51062;45.120;37.660;2022-07-10T04:56:53;35.78;49.24
64652;HTU21D;51062;45.120;37.660;2022-07-10T04:59:19;36.02;48.74
64652;HTU21D;51062;45.120;37.660;2022-07-10T05:01:45;36.21;47.66
64652;HTU21D;51062;45.120;37.660;2022-07-10T05:04:11;36.32;47.46
64652;HTU21D;51062;45.120;37.660;2022-07-10T05:06:38;36.51;46.44
64652;HTU21D;51062;45.120;37.660;2022-07-10T05:09:04;36.66;45.86
64652;HTU21D;51062;45.120;37.660;2022-07-10T05:11:30;36.75;45.60
64652;HTU21D;51062;45.120;37.660;2022-07-10T05:13:57;36.75;45.33
64652;HTU21D;51062;45.120;37.660;2022-07-10T05:16:24;36.73;45.27
64652;HTU21D;51062;45.120;37.660;2022-07-10T05:18:50;36.78;45.51
64652;HTU21D;51062;45.120;37.660;2022-07-10T05:21:16;36.99;45.24
64652;HTU21D;51062;45.120;37.660;2022-07-10T05:23:42;37.12;44.41
64652;HTU21D;51062;45.120;37.660;2022-07-10T05:26:08;36.92;43.69
64652;HTU21D;51062;45.120;37.660;2022-07-10T05:28:34;36.63;43.53
64652;HTU21D;51062;45.120;37.660;2022-07-10T05:31:01;36.78;43.92
64652;HTU21D;51062;45.120;37.660;2022-07-10T05:33:27;37.12;43.29
64652;HTU21D;51062;45.120;37.660;2022-07-10T05:35:54;37.40;42.52
64652;HTU21D;51062;45.120;37.660;2022-07-10T05:38:20;37.63;41.49
64652;HTU21D;51062;45.120;37.660;2022-07-10T05:40:46;37.74;41.58
64652;HTU21D;51062;45.120;37.660;2022-07-10T05:43:12;37.85;40.72
64652;HTU21D;51062;45.120;37.660;2022-07-10T05:45:39;37.91;40.05
64652;HTU21D;51062;45.120;37.660;2022-07-10T05:48:05;38.02;40.39
64652;HTU21D;51062;45.120;37.660;2022-07-10T05:50:31;38.07;39.80
64652;HTU21D;51062;45.120;37.660;2022-07-10T05:52:57;37.85;40.38
64652;HTU21D;51062;45.120;37.660;2022-07-10T05:55:23;37.61;39.88
64652;HTU21D;51062;45.120;37.660;2022-07-10T05:57:50;37.56;39.74
64652;HTU21D;51062;45.120;37.660;2022-07-10T06:00:20;37.61;39.44
64652;HTU21D;51062;45.120;37.660;2022-07-10T06:02:46;37.65;38.71
64652;HTU21D;51062;45.120;37.660;2022-07-10T06:05:12;37.71;38.23
64652;HTU21D;51062;45.120;37.660;2022-07-10T06:07:38;37.78;36.56
64652;HTU21D;51062;45.120;37.660;2022-07-10T06:10:05;37.75;35.89
64652;HTU21D;51062;45.120;37.660;2022-07-10T06:12:32;37.73;36.77
64652;HTU21D;51062;45.120;37.660;2022-07-10T06:14:58;37.92;36.48
64652;HTU21D;51062;45.120;37.660;2022-07-10T06:17:24;38.19;35.60
64652;HTU21D;51062;45.120;37.660;2022-07-10T06:19:50;38.38;35.76
64652;HTU21D;51062;45.120;37.660;2022-07-10T06:22:16;38.59;36.14
64652;HTU21D;51062;45.120;37.660;2022-07-10T06:25:05;38.58;35.75
64652;HTU21D;51062;45.120;37.660;2022-07-10T06:27:32;38.44;36.03
64652;HTU21D;51062;45.120;37.660;2022-07-10T06:29:59;37.91;36.39
64652;HTU21D;51062;45.120;37.660;2022-07-10T06:32:26;37.52;36.88
64652;HTU21D;51062;45.120;37.660;2022-07-10T06:34:53;37.41;36.56
64652;HTU21D;51062;45.120;37.660;2022-07-10T06:37:19;37.41;36.70
64652;HTU21D;51062;45.120;37.660;2022-07-10T06:39:46;37.42;36.70
64652;HTU21D;51062;45.120;37.660;2022-07-10T06:42:13;37.22;36.21
64652;HTU21D;51062;45.120;37.660;2022-07-10T06:44:42;36.91;36.27
64652;HTU21D;51062;45.120;37.660;2022-07-10T06:47:08;36.51;36.86
64652;HTU21D;51062;45.120;37.660;2022-07-10T06:49:54;36.07;37.10
64652;HTU21D;51062;45.120;37.660;2022-07-10T06:52:20;35.86;37.30
64652;HTU21D;51062;45.120;37.660;2022-07-10T06:54:47;35.80;38.29
64652;HTU21D;51062;45.120;37.660;2022-07-10T06:57:13;35.67;38.48
64652;HTU21D;51062;45.120;37.660;2022-07-10T06:59:39;35.44;39.39
64652;HTU21D;51062;45.120;37.660;2022-07-10T07:02:06;35.16;39.65
64652;HTU21D;51062;45.120;37.660;2022-07-10T07:04:32;34.84;40.38
64652;HTU21D;51062;45.120;37.660;2022-07-10T07:06:58;34.52;40.92
64652;HTU21D;51062;45.120;37.660;2022-07-10T07:09:24;34.41;41.51
64652;HTU21D;51062;45.120;37.660;2022-07-10T07:11:50;34.69;42.39
64652;HTU21D;51062;45.120;37.660;2022-07-10T07:14:16;35.09;41.66
64652;HTU21D;51062;45.120;37.660;2022-07-10T07:16:42;35.45;41.23
64652;HTU21D;51062;45.120;37.660;2022-07-10T07:19:12;35.95;40.70
64652;HTU21D;51062;45.120;37.660;2022-07-10T07:21:44;36.24;40.30
64652;HTU21D;51062;45.120;37.660;2022-07-10T07:24:28;36.45;40.15
64652;HTU21D;51062;45.120;37.660;2022-07-10T07:26:54;36.64;39.66
64652;HTU21D;51062;45.120;37.660;2022-07-10T07:29:20;36.89;39.39
64652;HTU21D;51062;45.120;37.660;2022-07-10T07:31:46;37.13;39.40
64652;HTU21D;51062;45.120;37.660;2022-07-10T07:34:12;37.30;38.86
64652;HTU21D;51062;45.120;37.660;2022-07-10T07:36:39;37.37;38.36
64652;HTU21D;51062;45.120;37.660;2022-07-10T07:39:05;37.45;37.58
64652;HTU21D;51062;45.120;37.660;2022-07-10T07:41:31;37.46;38.07
64652;HTU21D;51062;45.120;37.660;2022-07-10T07:43:57;37.34;38.36
64652;HTU21D;51062;45.120;37.660;2022-07-10T07:46:24;37.23;38.58
64652;HTU21D;51062;45.120;37.660;2022-07-10T07:48:50;37.07;38.38
64652;HTU21D;51062;45.120;37.660;2022-07-10T07:51:16;36.66;38.99
64652;HTU21D;51062;45.120;37.660;2022-07-10T07:53:42;36.29;39.62
64652;HTU21D;51062;45.120;37.660;2022-07-10T07:56:09;36.10;40.13
64652;HTU21D;51062;45.120;37.660;2022-07-10T07:58:35;35.75;40.85
64652;HTU21D;51062;45.120;37.660;2022-07-10T08:01:01;35.39;41.32
64652;HTU21D;51062;45.120;37.660;2022-07-10T08:03:28;34.99;41.65
64652;HTU21D;51062;45.120;37.660;2022-07-10T08:05:54;34.66;42.39
64652;HTU21D;51062;45.120;37.660;2022-07-10T08:08:20;34.38;43.26
64652;HTU21D;51062;45.120;37.660;2022-07-10T08:10:46;34.09;43.75
64652;HTU21D;51062;45.120;37.660;2022-07-10T08:13:12;33.83;43.96
64652;HTU21D;51062;45.120;37.660;2022-07-10T08:15:38;33.62;44.32
64652;HTU21D;51062;45.120;37.660;2022-07-10T08:18:04;33.46;44.81
64652;HTU21D;51062;45.120;37.660;2022-07-10T08:20:33;33.30;45.51
64652;HTU21D;51062;45.120;37.660;2022-07-10T08:22:59;33.16;45.82
64652;HTU21D;51062;45.120;37.660;2022-07-10T08:25:25;32.99;46.28
64652;HTU21D;51062;45.120;37.660;2022-07-10T08:27:52;32.84;46.68
64652;HTU21D;51062;45.120;37.660;2022-07-10T08:30:18;32.64;46.98
64652;HTU21D;51062;45.120;37.660;2022-07-10T08:32:44;32.47;47.38
64652;HTU21D;51062;45.120;37.660;2022-07-10T08:35:11;32.34;47.53
64652;HTU21D;51062;45.120;37.660;2022-07-10T08:37:39;32.22;47.58
64652;HTU21D;51062;45.120;37.660;2022-07-10T08:40:08;32.07;47.93
64652;HTU21D;51062;45.120;37.660;2022-07-10T08:42:34;31.90;48.15
64652;HTU21D;51062;45.120;37.660;2022-07-10T08:45:01;31.76;48.65
64652;HTU21D;51062;45.120;37.660;2022-07-10T08:47:27;31.63;48.92
64652;HTU21D;51062;45.120;37.660;2022-07-10T08:49:57;31.51;49.19
64652;HTU21D;51062;45.120;37.660;2022-07-10T08:52:38;31.43;49.65
64652;HTU21D;51062;45.120;37.660;2022-07-10T08:55:06;31.44;50.13
64652;HTU21D;51062;45.120;37.660;2022-07-10T08:57:33;31.53;49.91
64652;HTU21D;51062;45.120;37.660;2022-07-10T09:00:00;31.61;49.67
64652;HTU21D;51062;45.120;37.660;2022-07-10T09:02:26;31.70;49.05
64652;HTU21D;51062;45.120;37.660;2022-07-10T09:04:52;31.76;48.77
64652;HTU21D;51062;45.120;37.660;2022-07-10T09:07:18;31.76;48.35
64652;HTU21D;51062;45.120;37.660;2022-07-10T09:09:55;31.76;48.50
64652;HTU21D;51062;45.120;37.660;2022-07-10T09:12:23;31.73;48.84
64652;HTU21D;51062;45.120;37.660;2022-07-10T09:14:50;31.63;49.36
64652;HTU21D;51062;45.120;37.660;2022-07-10T09:17:17;31.53;49.87
64652;HTU21D;51062;45.120;37.660;2022-07-10T09:19:44;31.45;50.59
64652;HTU21D;51062;45.120;37.660;2022-07-10T09:22:11;31.40;50.87
64652;HTU21D;51062;45.120;37.660;2022-07-10T09:24:45;31.40;51.11
64652;HTU21D;51062;45.120;37.660;2022-07-10T09:27:15;31.42;51.19
64652;HTU21D;51062;45.120;37.660;2022-07-10T09:29:49;31.46;51.41
64652;HTU21D;51062;45.120;37.660;2022-07-10T09:32:24;31.39;51.75
64652;HTU21D;51062;45.120;37.660;2022-07-10T09:34:51;31.35;52.21
64652;HTU21D;51062;45.120;37.660;2022-07-10T09:37:39;31.37;52.46
64652;HTU21D;51062;45.120;37.660;2022-07-10T09:40:06;31.44;52.66
64652;HTU21D;51062;45.120;37.660;2022-07-10T09:42:39;31.57;52.71
64652;HTU21D;51062;45.120;37.660;2022-07-10T09:47:59;31.40;52.65
64652;HTU21D;51062;45.120;37.660;2022-07-10T09:50:36;31.25;52.78
64652;HTU21D;51062;45.120;37.660;2022-07-10T09:53:07;31.14;53.10
64652;HTU21D;51062;45.120;37.660;2022-07-10T09:55:36;31.08;53.29
64652;HTU21D;51062;45.120;37.660;2022-07-10T09:58:09;31.01;53.43
64652;HTU21D;51062;45.120;37.660;2022-07-10T10:00:37;30.99;53.54
64652;HTU21D;51062;45.120;37.660;2022-07-10T10:03:05;31.00;53.76
64652;HTU21D;51062;45.120;37.660;2022-07-10T10:05:42;31.06;53.75
64652;HTU21D;51062;45.120;37.660;2022-07-10T10:08:19;31.09;53.73
64652;HTU21D;51062;45.120;37.660;2022-07-10T10:10:49;31.14;53.95
64652;HTU21D;51062;45.120;37.660;2022-07-10T10:13:18;31.22;53.94
64652;HTU21D;51062;45.120;37.660;2022-07-10T10:15:46;31.35;54.01
64652;HTU21D;51062;45.120;37.660;2022-07-10T10:18:13;31.57;53.97
64652;HTU21D;51062;45.120;37.660;2022-07-10T10:20:41;31.82;53.78
64652;HTU21D;51062;45.120;37.660;2022-07-10T10:23:19;32.11;53.44
64652;HTU21D;51062;45.120;37.660;2022-07-10T10:25:47;32.34;52.66
64652;HTU21D;51062;45.120;37.660;2022-07-10T10:28:14;32.49;52.38
64652;HTU21D;51062;45.120;37.660;2022-07-10T10:30:43;32.59;52.30
64652;HTU21D;51062;45.120;37.660;2022-07-10T10:36:00;32.52;51.66
64652;HTU21D;51062;45.120;37.660;2022-07-10T10:41:40;32.00;52.29
64652;HTU21D;51062;45.120;37.660;2022-07-10T10:46:34;31.72;52.58
64652;HTU21D;51062;45.120;37.660;2022-07-10T10:49:05;31.65;52.83
64652;HTU21D;51062;45.120;37.660;2022-07-10T10:52:03;31.57;52.81
64652;HTU21D;51062;45.120;37.660;2022-07-10T10:57:17;31.41;53.04
64652;HTU21D;51062;45.120;37.660;2022-07-10T10:59:49;31.39;53.20
64652;HTU21D;51062;45.120;37.660;2022-07-10T11:07:54;31.38;53.51
64652;HTU21D;51062;45.120;37.660;2022-07-10T11:10:31;31.35;53.71
64652;HTU21D;51062;45.120;37.660;2022-07-10T11:13:15;31.27;53.63
64652;HTU21D;51062;45.120;37.660;2022-07-10T11:15:46;31.15;53.60
64652;HTU21D;51062;45.120;37.660;2022-07-10T11:18:18;31.01;53.80
64652;HTU21D;51062;45.120;37.660;2022-07-10T11:20:47;30.93;54.14
64652;HTU21D;51062;45.120;37.660;2022-07-10T11:26:09;31.01;54.46
64652;HTU21D;51062;45.120;37.660;2022-07-10T11:31:03;31.40;53.97
64652;HTU21D;51062;45.120;37.660;2022-07-10T11:33:42;31.52;53.93
64652;HTU21D;51062;45.120;37.660;2022-07-10T11:36:11;31.57;53.97
64652;HTU21D;51062;45.120;37.660;2022-07-10T11:38:44;31.53;53.98
64652;HTU21D;51062;45.120;37.660;2022-07-10T11:41:19;31.43;54.14
64652;HTU21D;51062;45.120;37.660;2022-07-10T11:44:05;31.29;54.23
64652;HTU21D;51062;45.120;37.660;2022-07-10T11:46:32;31.12;54.23
64652;HTU21D;51062;45.120;37.660;2022-07-10T11:49:02;30.93;54.51
64652;HTU21D;51062;45.120;37.660;2022-07-10T11:51:33;30.80;54.91
64652;HTU21D;51062;45.120;37.660;2022-07-10T11:54:03;30.68;55.13
64652;HTU21D;51062;45.120;37.660;2022-07-10T11:56:34;30.64;55.35
64652;HTU21D;51062;45.120;37.660;2022-07-10T11:59:10;30.62;55.44
64652;HTU21D;51062;45.120;37.660;2022-07-10T12:01:44;30.57;55.59
64652;HTU21D;51062;45.120;37.660;2022-07-10T12:04:11;30.52;55.61
64652;HTU21D;51062;45.120;37.660;2022-07-10T12:06:43;30.41;55.81
64652;HTU21D;51062;45.120;37.660;2022-07-10T12:09:10;30.31;55.92
64652;HTU21D;51062;45.120;37.660;2022-07-10T12:11:37;30.18;56.07
64652;HTU21D;51062;45.120;37.660;2022-07-10T12:14:20;30.06;56.32
64652;HTU21D;51062;45.120;37.660;2022-07-10T12:16:50;29.91;56.55
64652;HTU21D;51062;45.120;37.660;2022-07-10T12:19:22;29.78;56.84
64652;HTU21D;51062;45.120;37.660;2022-07-10T12:21:48;29.67;57.10
64652;HTU21D;51062;45.120;37.660;2022-07-10T12:24:18;29.54;57.32
64652;HTU21D;51062;45.120;37.660;2022-07-10T12:26:49;29.39;57.16
64652;HTU21D;51062;45.120;37.660;2022-07-10T12:29:23;29.30;57.56
64652;HTU21D;51062;45.120;37.660;2022-07-10T12:31:52;29.26;57.80
64652;HTU21D;51062;45.120;37.660;2022-07-10T12:34:35;29.19;58.06
64652;HTU21D;51062;45.120;37.660;2022-07-10T12:37:12;29.23;58.25
64652;HTU21D;51062;45.120;37.660;2022-07-10T12:39:52;29.29;58.22
64652;HTU21D;51062;45.120;37.660;2022-07-10T12:42:26;29.35;58.29
64652;HTU21D;51062;45.120;37.660;2022-07-10T12:44:53;29.41;58.23
64652;HTU21D;51062;45.120;37.660;2022-07-10T12:47:20;29.41;58.30
64652;HTU21D;51062;45.120;37.660;2022-07-10T12:52:27;29.38;58.45
64652;HTU21D;51062;45.120;37.660;2022-07-10T12:55:22;29.38;58.56
64652;HTU21D;51062;45.120;37.660;2022-07-10T13:02:47;29.53;58.56
64652;HTU21D;51062;45.120;37.660;2022-07-10T13:05:37;29.64;58.48
64652;HTU21D;51062;45.120;37.660;2022-07-10T13:08:11;29.76;58.26
64652;HTU21D;51062;45.120;37.660;2022-07-10T13:10:55;29.92;58.13
64652;HTU21D;51062;45.120;37.660;2022-07-10T13:13:22;30.05;58.00
64652;HTU21D;51062;45.120;37.660;2022-07-10T13:15:48;30.13;57.92
64652;HTU21D;51062;45.120;37.660;2022-07-10T13:18:24;30.23;57.83
64652;HTU21D;51062;45.120;37.660;2022-07-10T13:20:55;30.33;57.64
64652;HTU21D;51062;45.120;37.660;2022-07-10T13:23:22;30.46;57.55
64652;HTU21D;51062;45.120;37.660;2022-07-10T13:25:49;30.63;57.44
64652;HTU21D;51062;45.120;37.660;2022-07-10T13:28:15;30.72;57.19
64652;HTU21D;51062;45.120;37.660;2022-07-10T13:30:43;30.82;56.99
64652;HTU21D;51062;45.120;37.660;2022-07-10T13:33:09;30.85;56.84
64652;HTU21D;51062;45.120;37.660;2022-07-10T13:35:36;30.84;56.81
64652;HTU21D;51062;45.120;37.660;2022-07-10T13:38:03;30.83;56.80
64652;HTU21D;51062;45.120;37.660;2022-07-10T13:40:31;30.83;56.93
64652;HTU21D;51062;45.120;37.660;2022-07-10T13:42:58;30.82;56.93
64652;HTU21D;51062;45.120;37.660;2022-07-10T13:45:25;30.80;56.93
64652;HTU21D;51062;45.120;37.660;2022-07-10T13:47:55;30.81;56.72
64652;HTU21D;51062;45.120;37.660;2022-07-10T13:50:22;30.80;56.32
64652;HTU21D;51062;45.120;37.660;2022-07-10T13:52:49;30.77;55.99
64652;HTU21D;51062;45.120;37.660;2022-07-10T13:55:15;30.80;56.02
64652;HTU21D;51062;45.120;37.660;2022-07-10T13:57:42;30.83;55.64
64652;HTU21D;51062;45.120;37.660;2022-07-10T14:00:09;30.84;55.55
64652;HTU21D;51062;45.120;37.660;2022-07-10T14:02:38;30.86;55.39
64652;HTU21D;51062;45.120;37.660;2022-07-10T14:05:05;30.90;55.31
64652;HTU21D;51062;45.120;37.660;2022-07-10T14:07:33;30.95;55.16
64652;HTU21D;51062;45.120;37.660;2022-07-10T14:09:59;30.96;55.02
64652;HTU21D;51062;45.120;37.660;2022-07-10T14:12:27;30.90;54.88
64652;HTU21D;51062;45.120;37.660;2022-07-10T14:14:53;30.83;54.94
64652;HTU21D;51062;45.120;37.660;2022-07-10T14:17:20;30.81;54.93
64652;HTU21D;51062;45.120;37.660;2022-07-10T14:19:46;30.82;54.87
64652;HTU21D;51062;45.120;37.660;2022-07-10T14:22:12;30.80;54.87
64652;HTU21D;51062;45.120;37.660;2022-07-10T14:24:38;30.74;54.75
64652;HTU21D;51062;45.120;37.660;2022-07-10T14:27:05;30.63;54.72
64652;HTU21D;51062;45.120;37.660;2022-07-10T14:29:32;30.51;54.91
64652;HTU21D;51062;45.120;37.660;2022-07-10T14:31:58;30.40;55.29
64652;HTU21D;51062;45.120;37.660;2022-07-10T14:34:31;30.32;55.49
64652;HTU21D;51062;45.120;37.660;2022-07-10T14:36:57;30.27;55.74
64652;HTU21D;51062;45.120;37.660;2022-07-10T14:39:24;30.26;55.84
64652;HTU21D;51062;45.120;37.660;2022-07-10T14:41:50;30.27;55.96
64652;HTU21D;51062;45.120;37.660;2022-07-10T14:44:16;30.28;56.02
64652;HTU21D;51062;45.120;37.660;2022-07-10T14:46:42;30.25;55.98
64652;HTU21D;51062;45.120;37.660;2022-07-10T14:49:09;30.22;56.01
64652;HTU21D;51062;45.120;37.660;2022-07-10T14:51:35;30.18;56.11
64652;HTU21D;51062;45.120;37.660;2022-07-10T14:54:02;30.12;56.19
64652;HTU21D;51062;45.120;37.660;2022-07-10T14:56:28;30.13;56.35
64652;HTU21D;51062;45.120;37.660;2022-07-10T14:58:54;30.08;56.48
64652;HTU21D;51062;45.120;37.660;2022-07-10T15:01:20;30.02;56.62
64652;HTU21D;51062;45.120;37.660;2022-07-10T15:03:47;29.95;56.83
64652;HTU21D;51062;45.120;37.660;2022-07-10T15:06:13;29.86;56.89
64652;HTU21D;51062;45.120;37.660;2022-07-10T15:08:39;29.77;57.03
64652;HTU21D;51062;45.120;37.660;2022-07-10T15:11:05;29.67;57.20
64652;HTU21D;51062;45.120;37.660;2022-07-10T15:13:33;29.56;57.36
64652;HTU21D;51062;45.120;37.660;2022-07-10T15:15:59;29.46;57.51
64652;HTU21D;51062;45.120;37.660;2022-07-10T15:18:26;29.35;57.67
64652;HTU21D;51062;45.120;37.660;2022-07-10T15:20:52;29.27;57.96
64652;HTU21D;51062;45.120;37.660;2022-07-10T15:23:18;29.18;58.10
64652;HTU21D;51062;45.120;37.660;2022-07-10T15:25:44;29.12;58.22
64652;HTU21D;51062;45.120;37.660;2022-07-10T15:28:11;29.03;58.44
64652;HTU21D;51062;45.120;37.660;2022-07-10T15:30:38;28.95;58.70
64652;HTU21D;51062;45.120;37.660;2022-07-10T15:33:05;28.85;59.07
64652;HTU21D;51062;45.120;37.660;2022-07-10T15:35:31;28.74;59.31
64652;HTU21D;51062;45.120;37.660;2022-07-10T15:37:58;28.67;59.49
64652;HTU21D;51062;45.120;37.660;2022-07-10T15:40:30;28.59;59.68